createdAt,value
2023-03-11T00:01:00.640Z,11.35
2023-03-11T00:03:29.092Z,12.57
2023-03-11T00:05:58.699Z,11.98
2023-03-11T00:08:26.110Z,14.88
2023-03-11T00:10:55.972Z,11.48
2023-03-11T00:13:23.984Z,8.73
2023-03-11T00:15:56.006Z,11.60
2023-03-11T00:18:27.126Z,13.45
2023-03-11T00:20:56.233Z,9.07
2023-03-11T00:23:24.125Z,8.35
2023-03-11T00:25:51.507Z,7.97
2023-03-11T00:28:18.497Z,11.02
2023-03-11T00:30:46.852Z,10.32
2023-03-11T00:33:15.754Z,9.63
2023-03-11T00:35:43.650Z,7.88
2023-03-11T00:38:15.520Z,10.80
2023-03-11T00:40:44.187Z,12.90
2023-03-11T00:43:11.348Z,5.07
2023-03-11T00:45:38.374Z,8.88
2023-03-11T00:48:06.313Z,11.30
2023-03-11T00:50:35.865Z,19.83
2023-03-11T00:53:04.720Z,11.93
2023-03-11T00:55:33.745Z,15.90
2023-03-11T00:58:06.140Z,13.43
2023-03-11T01:00:41.293Z,10.68
2023-03-11T01:03:08.931Z,11.68
2023-03-11T01:05:36.159Z,13.02
2023-03-11T01:08:04.124Z,11.95
2023-03-11T01:10:32.354Z,12.38
2023-03-11T01:12:59.680Z,10.70
2023-03-11T01:15:36.300Z,11.75
2023-03-11T01:18:04.352Z,14.98
2023-03-11T01:20:33.188Z,10.60
2023-03-11T01:23:00.205Z,14.50
2023-03-11T01:25:28.617Z,8.13
2023-03-11T01:27:58.679Z,9.07
2023-03-11T01:30:27.126Z,17.10
2023-03-11T01:32:55.207Z,11.27
2023-03-11T01:35:24.452Z,10.68
2023-03-11T01:37:54.132Z,14.10
2023-03-11T01:40:27.252Z,10.02
2023-03-11T01:42:54.453Z,12.27
2023-03-11T01:45:41.164Z,14.20
2023-03-11T01:48:11.019Z,16.45
2023-03-11T01:50:43.343Z,25.33
2023-03-11T01:53:11.321Z,12.85
2023-03-11T01:55:40.946Z,14.10
2023-03-11T01:58:11.027Z,12.65
2023-03-11T02:03:24.310Z,14.15
2023-03-11T02:05:54.201Z,12.15
2023-03-11T02:08:22.034Z,9.20
2023-03-11T02:10:52.022Z,14.07
2023-03-11T02:13:20.575Z,18.05
2023-03-11T02:15:47.765Z,15.77
2023-03-11T02:18:16.155Z,14.82
2023-03-11T02:21:02.917Z,16.08
2023-03-11T02:24:00.041Z,14.25
2023-03-11T02:26:40.953Z,13.65
2023-03-11T02:29:11.506Z,15.88
2023-03-11T02:31:43.089Z,13.52
2023-03-11T02:34:29.250Z,18.83
2023-03-11T02:36:57.436Z,19.50
2023-03-11T02:39:34.212Z,14.73
2023-03-11T02:42:07.858Z,17.30
2023-03-11T02:44:35.097Z,19.80
2023-03-11T02:47:05.485Z,12.20
2023-03-11T02:49:33.196Z,13.32
2023-03-11T02:52:00.638Z,13.10
2023-03-11T02:54:30.533Z,18.52
2023-03-11T02:56:59.705Z,18.48
2023-03-11T02:59:28.034Z,19.75
2023-03-11T03:02:00.716Z,14.93
2023-03-11T03:04:53.169Z,22.95
2023-03-11T03:07:20.268Z,24.23
2023-03-11T03:09:47.185Z,17.58
2023-03-11T03:12:14.065Z,28.88
2023-03-11T03:14:41.286Z,36.80
2023-03-11T03:17:10.305Z,38.97
2023-03-11T03:19:37.389Z,39.15
2023-03-11T03:22:04.697Z,31.90
2023-03-11T03:24:32.817Z,51.55
2023-03-11T03:27:00.361Z,43.65
2023-03-11T03:29:29.731Z,49.75
2023-03-11T03:31:57.133Z,46.92
2023-03-11T03:34:25.262Z,51.38
2023-03-11T03:36:53.785Z,52.65
2023-03-11T03:39:22.156Z,45.83
2023-03-11T03:41:51.796Z,31.58
2023-03-11T03:44:20.035Z,27.77
2023-03-11T03:46:48.135Z,34.38
2023-03-11T03:49:27.893Z,30.15
2023-03-11T03:51:56.294Z,41.83
2023-03-11T03:54:31.116Z,46.97
2023-03-11T03:56:58.787Z,44.63
2023-03-11T03:59:25.999Z,38.20
2023-03-11T04:01:56.899Z,37.13
2023-03-11T04:04:25.714Z,56.28
2023-03-11T04:06:52.822Z,43.58
2023-03-11T04:09:20.567Z,51.03
2023-03-11T04:11:48.114Z,39.47
2023-03-11T04:14:17.729Z,37.50
2023-03-11T04:16:53.743Z,35.25
2023-03-11T04:19:22.348Z,44.63
2023-03-11T04:21:51.839Z,44.05
2023-03-11T04:27:05.930Z,40.90
2023-03-11T04:29:36.544Z,31.85
2023-03-11T04:32:07.550Z,30.33
2023-03-11T04:34:34.829Z,43.25
2023-03-11T04:37:02.129Z,18.23
2023-03-11T04:39:33.975Z,32.58
2023-03-11T04:42:03.996Z,19.73
2023-03-11T04:44:36.883Z,30.55
2023-03-11T04:47:06.111Z,29.27
2023-03-11T04:49:34.698Z,23.92
2023-03-11T04:52:01.858Z,31.95
2023-03-11T04:54:29.407Z,32.90
2023-03-11T04:56:56.408Z,36.55
2023-03-11T04:59:24.784Z,37.10
2023-03-11T05:01:52.812Z,44.47
2023-03-11T05:04:20.265Z,39.28
2023-03-11T05:06:47.721Z,29.05
2023-03-11T05:09:15.223Z,38.78
2023-03-11T05:11:44.587Z,36.13
2023-03-11T05:14:15.529Z,33.53
2023-03-11T05:16:42.517Z,36.60
2023-03-11T05:19:31.393Z,31.80
2023-03-11T05:22:04.939Z,38.53
2023-03-11T05:24:32.514Z,20.42
2023-03-11T05:26:59.912Z,25.50
2023-03-11T05:29:27.173Z,35.13
2023-03-11T05:31:54.901Z,15.57
2023-03-11T05:34:22.550Z,14.70
2023-03-11T05:36:49.785Z,36.08
2023-03-11T05:39:17.926Z,31.38
2023-03-11T05:41:45.388Z,18.17
2023-03-11T05:44:13.213Z,15.70
2023-03-11T05:46:40.914Z,18.02
2023-03-11T05:49:10.553Z,17.27
2023-03-11T05:51:38.423Z,16.45
2023-03-11T05:54:12.685Z,15.02
2023-03-11T05:56:42.438Z,17.83
2023-03-11T05:59:10.269Z,25.00
2023-03-11T06:01:37.516Z,13.40
2023-03-11T06:04:05.342Z,22.92
2023-03-11T06:06:33.357Z,20.35
2023-03-11T06:09:01.066Z,18.15
2023-03-11T06:11:29.629Z,11.75
2023-03-11T06:13:58.644Z,22.42
2023-03-11T06:16:28.316Z,19.63
2023-03-11T06:19:02.660Z,14.90
2023-03-11T06:21:33.904Z,19.50
2023-03-11T06:24:01.149Z,10.38
2023-03-11T06:26:30.437Z,13.97
2023-03-11T06:28:57.759Z,17.65
2023-03-11T06:31:27.190Z,15.13
2023-03-11T06:33:59.448Z,19.58
2023-03-11T06:36:27.295Z,9.98
2023-03-11T06:38:54.969Z,11.70
2023-03-11T06:43:51.674Z,10.85
2023-03-11T06:46:22.508Z,9.07
2023-03-11T06:48:52.426Z,14.13
2023-03-11T06:51:21.952Z,11.23
2023-03-11T06:53:51.945Z,10.93
2023-03-11T06:56:22.474Z,8.40
2023-03-11T06:58:55.236Z,8.73
2023-03-11T07:01:25.574Z,8.55
2023-03-11T07:03:54.879Z,6.63
2023-03-11T07:06:26.465Z,10.32
2023-03-11T07:08:59.417Z,7.35
2023-03-11T07:11:28.373Z,7.05
2023-03-11T07:14:02.779Z,5.63
2023-03-11T07:16:32.688Z,11.95
2023-03-11T07:19:06.435Z,12.77
2023-03-11T07:21:33.678Z,8.45
2023-03-11T07:24:03.008Z,7.65
2023-03-11T07:26:32.218Z,7.43
2023-03-11T07:28:59.543Z,8.20
2023-03-11T07:31:31.137Z,10.50
2023-03-11T07:34:00.363Z,9.02
2023-03-11T07:36:28.294Z,7.60
2023-03-11T07:39:04.838Z,11.30
2023-03-11T07:41:34.562Z,10.20
2023-03-11T07:44:02.960Z,9.00
2023-03-11T07:46:30.972Z,9.75
2023-03-11T07:48:58.199Z,7.40
2023-03-11T07:51:28.953Z,9.43
2023-03-11T07:53:57.538Z,11.60
2023-03-11T07:56:25.492Z,10.05
2023-03-11T07:58:53.299Z,8.00
2023-03-11T08:01:27.961Z,9.90
2023-03-11T08:03:58.172Z,8.52
2023-03-11T08:06:37.827Z,7.28
2023-03-11T08:09:10.627Z,6.35
2023-03-11T08:11:41.879Z,10.85
2023-03-11T08:14:15.047Z,9.52
2023-03-11T08:16:48.455Z,9.05
2023-03-11T08:19:32.542Z,11.90
2023-03-11T08:22:02.823Z,10.57
2023-03-11T08:27:19.406Z,9.95
2023-03-11T08:29:46.284Z,9.27
2023-03-11T08:32:17.750Z,6.78
2023-03-11T08:34:47.875Z,7.13
2023-03-11T08:37:15.557Z,9.35
2023-03-11T08:39:56.390Z,6.70
2023-03-11T08:42:24.427Z,8.48
2023-03-11T08:44:52.208Z,7.97
2023-03-11T08:47:22.648Z,10.75
2023-03-11T08:49:54.405Z,11.93
2023-03-11T08:52:33.245Z,9.32
2023-03-11T08:55:00.240Z,7.97
2023-03-11T08:57:38.468Z,7.18
2023-03-11T09:00:12.692Z,8.02
2023-03-11T09:02:46.451Z,7.72
2023-03-11T09:05:15.430Z,9.07
2023-03-11T09:07:43.078Z,6.55
2023-03-11T09:10:27.282Z,10.80
2023-03-11T09:13:04.884Z,8.88
2023-03-11T09:15:36.758Z,7.82
2023-03-11T09:18:19.056Z,11.65
2023-03-11T09:20:47.993Z,8.95
2023-03-11T09:23:17.542Z,7.45
2023-03-11T09:25:51.362Z,8.18
2023-03-11T09:28:38.121Z,6.15
2023-03-11T09:31:06.560Z,7.65
2023-03-11T09:33:59.877Z,6.97
2023-03-11T09:36:52.335Z,9.98
2023-03-11T09:39:20.811Z,8.00
2023-03-11T09:42:02.682Z,6.22
2023-03-11T09:44:35.783Z,8.73
2023-03-11T09:47:40.488Z,6.75
2023-03-11T09:51:27.966Z,5.63
2023-03-11T09:54:23.037Z,6.88
2023-03-11T10:00:20.729Z,7.40
2023-03-11T10:02:51.246Z,9.07
2023-03-11T10:05:27.933Z,4.07
2023-03-11T10:08:05.287Z,6.57
2023-03-11T10:10:43.824Z,9.18
2023-03-11T10:13:39.758Z,9.57
2023-03-11T10:16:23.745Z,5.60
2023-03-11T10:18:50.992Z,8.90
2023-03-11T10:21:37.244Z,7.75
2023-03-11T10:24:15.329Z,9.77
2023-03-11T10:26:44.764Z,5.68
2023-03-11T10:29:27.620Z,9.65
2023-03-11T10:32:17.658Z,7.80
2023-03-11T10:35:15.756Z,3.80
2023-03-11T10:37:59.282Z,6.32
2023-03-11T10:40:56.512Z,7.10
2023-03-11T10:43:45.229Z,10.95
2023-03-11T10:46:25.548Z,8.00
2023-03-11T10:51:35.903Z,7.90
2023-03-11T10:54:12.694Z,5.63
2023-03-11T10:57:34.732Z,10.13
2023-03-11T11:00:17.536Z,8.60
2023-03-11T11:02:54.003Z,8.20
2023-03-11T11:06:18.441Z,7.88
2023-03-11T11:08:49.127Z,8.18
2023-03-11T11:11:49.585Z,8.38
2023-03-11T11:15:40.426Z,10.20
2023-03-11T11:25:20.372Z,7.53
2023-03-11T11:27:59.415Z,10.23
2023-03-11T11:30:57.387Z,8.25
2023-03-11T11:33:42.615Z,8.95
2023-03-11T11:36:20.755Z,10.65
2023-03-11T11:38:47.801Z,7.82
2023-03-11T11:42:12.198Z,5.38
2023-03-11T11:49:19.921Z,6.57
2023-03-11T11:52:24.105Z,9.15
2023-03-11T12:01:43.822Z,5.90
2023-03-11T12:04:31.861Z,8.02
2023-03-11T12:07:19.165Z,8.65
2023-03-11T12:09:54.256Z,9.75
2023-03-11T12:12:34.728Z,9.15
2023-03-11T12:15:36.497Z,11.52
2023-03-11T12:18:17.557Z,9.15
2023-03-11T12:20:51.676Z,5.88
2023-03-11T12:24:12.655Z,8.77
2023-03-11T12:26:56.665Z,10.38
2023-03-11T12:29:36.175Z,7.30
2023-03-11T12:32:04.011Z,9.88
2023-03-11T12:34:38.439Z,10.40
2023-03-11T12:37:19.188Z,7.93
2023-03-11T12:39:48.486Z,9.50
2023-03-11T12:42:18.690Z,9.67
2023-03-11T12:44:58.843Z,8.15
2023-03-11T12:47:40.938Z,6.68
2023-03-11T12:50:45.010Z,10.05
2023-03-11T12:53:18.669Z,8.73
2023-03-11T12:56:45.387Z,6.10
2023-03-11T12:59:32.156Z,8.30
2023-03-11T13:02:12.030Z,6.20
2023-03-11T13:05:04.450Z,8.43
2023-03-11T13:07:47.971Z,7.05
2023-03-11T13:10:18.054Z,6.80
2023-03-11T13:12:50.622Z,7.18
2023-03-11T13:15:20.445Z,9.27
2023-03-11T13:18:17.841Z,7.60
2023-03-11T13:20:49.448Z,11.35
2023-03-11T13:23:45.769Z,8.00
2023-03-11T13:26:18.377Z,10.68
2023-03-11T13:29:11.676Z,7.88
2023-03-11T13:31:43.818Z,7.25
2023-03-11T13:34:41.862Z,8.13
2023-03-11T13:37:34.794Z,14.13
2023-03-11T13:40:14.342Z,11.40
2023-03-11T13:42:46.455Z,11.57
2023-03-11T13:45:26.040Z,9.70
2023-03-11T13:47:57.134Z,9.80
2023-03-11T13:50:31.180Z,11.60
2023-03-11T13:53:01.661Z,10.63
2023-03-11T13:55:40.522Z,9.48
2023-03-11T13:58:26.187Z,9.65
2023-03-11T14:01:03.337Z,11.18
2023-03-11T14:03:36.154Z,6.70
2023-03-11T14:06:07.105Z,10.70
2023-03-11T14:08:36.765Z,11.45
2023-03-11T14:11:16.815Z,21.90
2023-03-11T14:13:50.423Z,21.88
2023-03-11T14:16:19.287Z,12.23
2023-03-11T14:18:48.546Z,11.13
2023-03-11T14:21:21.487Z,8.63
2023-03-11T14:23:59.456Z,12.52
2023-03-11T14:26:35.246Z,8.88
2023-03-11T14:29:22.633Z,7.00
2023-03-11T14:31:50.166Z,12.38
2023-03-11T14:34:18.592Z,10.38
2023-03-11T14:36:54.357Z,9.18
2023-03-11T14:39:30.543Z,9.77
2023-03-11T14:42:00.214Z,9.32
2023-03-11T14:44:28.925Z,13.30
2023-03-11T14:47:05.811Z,11.60
2023-03-11T14:49:33.357Z,9.10
2023-03-11T14:52:08.334Z,10.43
2023-03-11T14:54:37.788Z,13.40
2023-03-11T14:57:15.947Z,9.27
2023-03-11T14:59:44.618Z,9.40
2023-03-11T15:02:39.910Z,10.65
2023-03-11T15:05:18.605Z,11.90
2023-03-11T15:07:46.640Z,9.00
2023-03-11T15:10:23.209Z,9.95
2023-03-11T15:12:50.360Z,8.65
2023-03-11T15:15:28.923Z,7.95
2023-03-11T15:18:01.179Z,10.88
2023-03-11T15:20:38.157Z,10.45
2023-03-11T15:23:07.784Z,9.27
2023-03-11T15:25:38.418Z,12.25
2023-03-11T15:28:29.509Z,10.52
2023-03-11T15:31:21.678Z,9.15
2023-03-11T15:33:50.001Z,12.30
2023-03-11T15:36:42.462Z,8.45
2023-03-11T15:39:32.165Z,10.02
2023-03-11T15:42:06.675Z,11.38
2023-03-11T15:44:41.218Z,12.93
2023-03-11T15:47:20.101Z,11.65
2023-03-11T15:49:50.101Z,7.55
2023-03-11T15:52:21.095Z,8.85
2023-03-11T15:54:55.513Z,6.55
2023-03-11T15:57:27.606Z,9.30
2023-03-11T15:59:57.620Z,14.32
2023-03-11T16:02:28.025Z,11.38
2023-03-11T16:04:56.052Z,12.40
2023-03-11T16:07:38.283Z,9.02
2023-03-11T16:10:08.325Z,13.80
2023-03-11T16:12:35.672Z,10.75
2023-03-11T16:15:02.812Z,13.05
2023-03-11T16:17:46.859Z,10.63
2023-03-11T16:20:16.569Z,5.45
2023-03-11T16:22:43.662Z,10.00
2023-03-11T16:25:36.394Z,11.70
2023-03-11T16:28:03.971Z,10.23
2023-03-11T16:30:32.897Z,13.07
2023-03-11T16:33:03.296Z,10.75
2023-03-11T16:35:31.618Z,10.07
2023-03-11T16:37:58.857Z,13.15
2023-03-11T16:40:29.631Z,10.90
2023-03-11T16:43:09.505Z,8.13
2023-03-11T16:48:13.289Z,10.40
2023-03-11T16:50:43.873Z,14.35
2023-03-11T16:53:11.275Z,13.05
2023-03-11T16:55:38.618Z,7.60
2023-03-11T16:58:06.160Z,9.98
2023-03-11T17:00:33.381Z,11.07
2023-03-11T17:03:00.819Z,12.68
2023-03-11T17:05:28.243Z,8.98
2023-03-11T17:08:01.111Z,11.30
2023-03-11T17:10:30.494Z,9.25
2023-03-11T17:13:03.921Z,7.55
2023-03-11T17:15:32.260Z,12.60
2023-03-11T17:17:59.643Z,8.88
2023-03-11T17:20:26.827Z,11.25
2023-03-11T17:22:54.117Z,10.63
2023-03-11T17:25:21.637Z,11.02
2023-03-11T17:27:49.594Z,9.70
2023-03-11T17:30:27.191Z,8.43
2023-03-11T17:33:01.571Z,11.52
2023-03-11T17:35:28.913Z,13.10
2023-03-11T17:37:56.107Z,11.73
2023-03-11T17:40:23.442Z,10.57
2023-03-11T17:42:50.829Z,16.27
2023-03-11T17:45:18.161Z,9.27
2023-03-11T17:47:45.292Z,11.80
2023-03-11T17:50:13.194Z,14.77
2023-03-11T17:52:40.304Z,11.88
2023-03-11T17:55:08.146Z,10.60
2023-03-11T17:57:44.468Z,11.88
2023-03-11T18:00:15.232Z,10.73
2023-03-11T18:02:42.884Z,10.82
2023-03-11T18:05:10.477Z,9.70
2023-03-11T18:07:40.675Z,13.85
2023-03-11T18:10:09.428Z,12.65
2023-03-11T18:12:37.876Z,14.50
2023-03-11T18:15:11.120Z,10.13
2023-03-11T18:17:41.101Z,14.38
2023-03-11T18:20:09.006Z,9.88
2023-03-11T18:22:37.279Z,12.45
2023-03-11T18:25:09.930Z,11.90
2023-03-11T18:27:38.060Z,13.60
2023-03-11T18:30:06.306Z,19.20
2023-03-11T18:32:34.601Z,10.95
2023-03-11T18:35:01.788Z,10.68
2023-03-11T18:37:33.229Z,10.95
2023-03-11T18:40:00.917Z,15.80
2023-03-11T18:42:28.200Z,16.33
2023-03-11T18:44:55.268Z,15.80
2023-03-11T18:47:22.560Z,16.67
2023-03-11T18:49:50.135Z,10.50
2023-03-11T18:52:49.764Z,18.90
2023-03-11T18:55:16.975Z,16.92
2023-03-11T18:57:44.270Z,13.68
2023-03-11T19:00:11.911Z,16.77
2023-03-11T19:02:39.195Z,14.07
2023-03-11T19:05:06.846Z,18.73
2023-03-11T19:07:34.060Z,12.25
2023-03-11T19:10:01.672Z,16.40
2023-03-11T19:12:30.969Z,18.77
2023-03-11T19:14:58.124Z,14.07
2023-03-11T19:17:25.278Z,14.55
2023-03-11T19:19:52.639Z,21.65
2023-03-11T19:22:19.722Z,13.75
2023-03-11T19:24:46.660Z,18.80
2023-03-11T19:27:13.741Z,15.95
2023-03-11T19:29:40.651Z,14.27
2023-03-11T19:32:07.548Z,18.10
2023-03-11T19:34:34.787Z,14.43
2023-03-11T19:37:01.825Z,14.38
2023-03-11T19:39:28.819Z,20.27
2023-03-11T19:41:55.809Z,20.30
2023-03-11T19:44:22.830Z,16.17
2023-03-11T19:46:49.704Z,15.85
2023-03-11T19:49:16.740Z,23.25
2023-03-11T19:51:50.046Z,17.45
2023-03-11T19:54:18.996Z,14.55
2023-03-11T19:56:46.637Z,15.85
2023-03-11T19:59:14.431Z,17.08
2023-03-11T20:01:42.423Z,21.58
2023-03-11T20:04:10.868Z,18.70
2023-03-11T20:06:38.121Z,16.27
2023-03-11T20:09:07.023Z,17.60
2023-03-11T20:11:38.044Z,16.10
2023-03-11T20:14:06.434Z,14.77
2023-03-11T20:16:33.796Z,18.83
2023-03-11T20:19:00.852Z,18.77
2023-03-11T20:21:27.920Z,12.05
2023-03-11T20:23:56.160Z,20.55
2023-03-11T20:26:24.519Z,9.38
2023-03-11T20:28:55.635Z,20.38
2023-03-11T20:31:25.029Z,23.08
2023-03-11T20:33:53.360Z,14.47
2023-03-11T20:36:26.249Z,17.10
2023-03-11T20:38:54.611Z,15.90
2023-03-11T20:41:25.889Z,18.52
2023-03-11T20:43:55.248Z,13.15
2023-03-11T20:46:23.036Z,15.67
2023-03-11T20:48:50.931Z,21.48
2023-03-11T20:51:20.782Z,15.13
2023-03-11T20:53:49.095Z,14.48
2023-03-11T20:56:18.839Z,17.02
2023-03-11T20:58:48.796Z,23.08
2023-03-11T21:01:22.073Z,16.13
2023-03-11T21:03:49.778Z,24.27
2023-03-11T21:06:23.213Z,18.67
2023-03-11T21:08:50.524Z,18.55
2023-03-11T21:11:18.533Z,19.83
2023-03-11T21:13:45.722Z,15.05
2023-03-11T21:16:13.713Z,29.20
2023-03-11T21:18:43.962Z,27.58
2023-03-11T21:21:13.579Z,26.05
2023-03-11T21:23:42.118Z,15.43
2023-03-11T21:26:10.031Z,24.13
2023-03-11T21:28:40.139Z,20.40
2023-03-11T21:31:11.167Z,14.55
2023-03-11T21:33:39.638Z,22.23
2023-03-11T21:36:08.290Z,20.92
2023-03-11T21:38:35.729Z,14.23
2023-03-11T21:41:09.346Z,12.93
2023-03-11T21:43:37.097Z,15.05
2023-03-11T21:46:05.929Z,14.63
2023-03-11T21:48:33.942Z,12.63
2023-03-11T21:51:01.814Z,14.60
2023-03-11T21:53:29.638Z,17.58
2023-03-11T21:55:56.617Z,11.82
2023-03-11T21:58:23.759Z,9.80
2023-03-11T22:00:50.825Z,12.88
2023-03-11T22:03:18.345Z,14.52
2023-03-11T22:05:45.696Z,9.68
2023-03-11T22:08:14.674Z,6.47
2023-03-11T22:10:42.394Z,13.32
2023-03-11T22:13:09.421Z,7.53
2023-03-11T22:15:36.935Z,12.00
2023-03-11T22:18:04.258Z,10.23
2023-03-11T22:20:31.261Z,6.32
2023-03-11T22:22:58.216Z,11.45
2023-03-11T22:25:25.516Z,10.27
2023-03-11T22:27:52.486Z,5.70
2023-03-11T22:30:19.468Z,12.10
2023-03-11T22:32:46.444Z,7.75
2023-03-11T22:35:13.446Z,6.57
2023-03-11T22:37:40.649Z,11.82
2023-03-11T22:40:08.429Z,7.68
2023-03-11T22:42:35.367Z,4.95
2023-03-11T22:45:03.123Z,8.55
2023-03-11T22:47:30.354Z,4.95
2023-03-11T22:49:57.477Z,6.32
2023-03-11T22:52:24.528Z,6.30
2023-03-11T22:54:51.680Z,6.78
2023-03-11T22:57:18.804Z,5.88
2023-03-11T22:59:45.885Z,5.00
2023-03-11T23:02:12.899Z,5.50
2023-03-11T23:04:39.972Z,6.97
2023-03-11T23:07:07.169Z,6.05
2023-03-11T23:09:34.958Z,5.40
2023-03-11T23:12:03.932Z,3.20
2023-03-11T23:14:44.074Z,3.70
2023-03-11T23:17:12.094Z,4.80
2023-03-11T23:19:39.267Z,5.97
2023-03-11T23:22:07.119Z,6.82
2023-03-11T23:24:34.328Z,6.15
2023-03-11T23:27:04.944Z,2.30
2023-03-11T23:29:32.638Z,6.18
2023-03-11T23:31:59.589Z,7.30
2023-03-11T23:34:26.567Z,5.30
2023-03-11T23:36:53.717Z,5.47
2023-03-11T23:39:20.624Z,3.85
2023-03-11T23:41:47.568Z,4.00
2023-03-11T23:44:14.596Z,3.70
2023-03-11T23:46:41.486Z,4.78
2023-03-11T23:49:08.707Z,4.97
2023-03-11T23:51:35.755Z,3.05
2023-03-11T23:54:02.814Z,7.03
2023-03-11T23:56:29.878Z,3.65
2023-03-11T23:58:56.792Z,3.35
